createdAt,value
2019-03-24T00:03:59.548Z,47.40
2019-03-24T00:09:00.901Z,47.40
2019-03-24T00:14:02.229Z,47.30
2019-03-24T00:19:03.675Z,47.30
2019-03-24T00:24:05.212Z,47.30
2019-03-24T00:29:06.624Z,47.40
2019-03-24T00:34:07.968Z,47.30
2019-03-24T00:39:09.327Z,47.40
2019-03-24T00:44:10.644Z,47.30
2019-03-24T00:49:12.116Z,47.30
2019-03-24T00:54:13.553Z,47.20
2019-03-24T00:59:14.910Z,47.20
2019-03-24T01:04:16.231Z,47.30
2019-03-24T01:09:17.736Z,47.20
2019-03-24T01:14:19.108Z,47.20
2019-03-24T01:19:20.432Z,47.20
2019-03-24T01:24:21.887Z,47.20
2019-03-24T01:29:23.314Z,47.20
2019-03-24T01:34:24.790Z,47.20
2019-03-24T01:39:26.111Z,47.20
2019-03-24T01:44:27.459Z,47.10
2019-03-24T01:49:28.778Z,47.10
2019-03-24T01:54:30.119Z,47.10
2019-03-24T01:59:31.455Z,47.10
2019-03-24T02:04:32.887Z,47.10
2019-03-24T02:09:34.218Z,47.10
2019-03-24T02:14:35.568Z,47.10
2019-03-24T02:19:36.915Z,47.00
2019-03-24T02:24:38.276Z,47.10
2019-03-24T02:29:39.619Z,47.00
2019-03-24T02:34:40.962Z,47.10
2019-03-24T02:39:42.286Z,47.00
2019-03-24T02:44:43.679Z,47.00
2019-03-24T02:49:44.990Z,47.10
2019-03-24T02:54:46.341Z,47.00
2019-03-24T02:59:47.665Z,47.00
2019-03-24T03:04:49.011Z,47.00
2019-03-24T03:09:50.355Z,47.10
2019-03-24T03:14:51.698Z,47.10
2019-03-24T03:19:53.826Z,47.10
2019-03-24T03:24:55.492Z,47.10
2019-03-24T03:29:56.845Z,47.10
2019-03-24T03:34:58.285Z,47.10
2019-03-24T03:39:59.643Z,47.20
2019-03-24T03:45:01.068Z,47.20
2019-03-24T03:50:05.231Z,47.20
2019-03-24T03:55:06.758Z,47.20
2019-03-24T04:00:08.802Z,47.10
2019-03-24T04:05:10.277Z,47.20
2019-03-24T04:10:11.702Z,47.20
2019-03-24T04:15:13.057Z,47.20
2019-03-24T04:20:14.518Z,47.10
2019-03-24T04:25:15.873Z,47.20
2019-03-24T04:30:17.528Z,47.10
2019-03-24T04:35:18.864Z,47.10
2019-03-24T04:40:20.196Z,47.10
2019-03-24T04:45:21.556Z,47.20
2019-03-24T04:50:22.882Z,47.10
2019-03-24T04:55:24.221Z,47.10
2019-03-24T05:00:37.467Z,47.10
2019-03-24T05:05:39.007Z,47.10
2019-03-24T05:10:40.354Z,47.10
2019-03-24T05:15:41.678Z,47.00
2019-03-24T05:20:43.018Z,47.00
2019-03-24T05:25:44.358Z,47.00
2019-03-24T05:30:45.693Z,47.00
2019-03-24T05:35:47.143Z,47.00
2019-03-24T05:40:48.484Z,47.00
2019-03-24T05:45:49.818Z,46.90
2019-03-24T05:50:51.192Z,46.90
2019-03-24T05:55:52.535Z,47.00
2019-03-24T06:00:53.885Z,46.90
2019-03-24T06:05:55.208Z,47.00
2019-03-24T06:10:56.567Z,46.90
2019-03-24T06:15:57.890Z,47.00
2019-03-24T06:20:59.953Z,46.90
2019-03-24T06:26:01.295Z,46.90
2019-03-24T06:31:02.847Z,46.90
2019-03-24T06:36:04.269Z,46.80
2019-03-24T06:41:05.607Z,46.90
2019-03-24T06:46:07.011Z,46.30
2019-03-24T06:51:08.342Z,46.90
2019-03-24T06:56:09.691Z,46.90
2019-03-24T07:01:11.010Z,46.90
2019-03-24T07:06:12.461Z,47.00
2019-03-24T07:11:14.062Z,47.00
2019-03-24T07:16:15.528Z,47.00
2019-03-24T07:21:17.015Z,47.00
2019-03-24T07:26:18.448Z,47.00
2019-03-24T07:31:19.772Z,47.10
2019-03-24T07:36:21.119Z,47.10
2019-03-24T07:41:22.439Z,47.00
2019-03-24T07:46:23.776Z,47.00
2019-03-24T07:51:25.130Z,46.90
2019-03-24T07:56:26.449Z,47.00
2019-03-24T08:01:27.816Z,46.80
2019-03-24T08:06:29.129Z,46.80
2019-03-24T08:11:30.491Z,46.70
2019-03-24T08:16:31.815Z,46.90
2019-03-24T08:21:33.254Z,46.90
2019-03-24T08:26:34.576Z,46.80
2019-03-24T08:31:35.915Z,46.90
2019-03-24T08:36:37.366Z,47.00
2019-03-24T08:41:38.889Z,47.10
2019-03-24T08:46:40.242Z,46.90
2019-03-24T08:51:41.583Z,47.00
2019-03-24T08:56:42.949Z,47.10
2019-03-24T09:01:44.322Z,47.60
2019-03-24T09:06:45.677Z,47.00
2019-03-24T09:11:47.001Z,47.10
2019-03-24T09:16:48.384Z,47.80
2019-03-24T09:21:49.695Z,47.10
2019-03-24T09:26:51.035Z,47.10
2019-03-24T09:31:52.385Z,47.20
2019-03-24T09:36:53.708Z,47.30
2019-03-24T09:41:55.060Z,47.40
2019-03-24T09:46:56.408Z,47.40
2019-03-24T09:51:57.743Z,47.50
2019-03-24T09:56:59.119Z,47.50
2019-03-24T10:02:00.494Z,48.10
2019-03-24T10:07:01.948Z,47.30
2019-03-24T10:12:03.316Z,47.20
2019-03-24T10:17:04.750Z,47.20
2019-03-24T10:22:06.098Z,46.90
2019-03-24T10:27:07.423Z,46.50
2019-03-24T10:32:08.859Z,46.50
2019-03-24T10:37:10.239Z,46.40
2019-03-24T10:42:11.548Z,46.30
2019-03-24T10:47:12.936Z,46.10
2019-03-24T10:52:14.259Z,45.90
2019-03-24T10:57:15.704Z,46.20
2019-03-24T11:02:17.024Z,45.80
2019-03-24T11:07:18.430Z,45.60
2019-03-24T11:12:19.698Z,45.70
2019-03-24T11:17:21.068Z,45.80
2019-03-24T11:22:22.425Z,45.90
2019-03-24T11:27:23.747Z,46.00
2019-03-24T11:32:25.094Z,45.70
2019-03-24T11:37:26.429Z,45.50
2019-03-24T11:42:27.810Z,45.40
2019-03-24T11:47:29.187Z,45.40
2019-03-24T11:52:30.555Z,45.30
2019-03-24T11:57:31.867Z,45.00
2019-03-24T12:02:33.407Z,45.00
2019-03-24T12:07:34.757Z,44.90
2019-03-24T12:12:36.099Z,44.80
2019-03-24T12:17:37.445Z,45.00
2019-03-24T12:22:38.836Z,44.80
2019-03-24T12:27:40.226Z,44.70
2019-03-24T12:32:41.539Z,44.50
2019-03-24T12:37:42.895Z,44.70
2019-03-24T12:42:44.242Z,44.60
2019-03-24T12:47:45.570Z,44.60
2019-03-24T12:52:46.910Z,44.60
2019-03-24T12:57:48.261Z,44.60
2019-03-24T13:02:49.580Z,44.50
2019-03-24T13:07:50.952Z,44.40
2019-03-24T13:12:52.271Z,44.30
2019-03-24T13:17:53.608Z,44.30
2019-03-24T13:22:54.967Z,44.30
2019-03-24T13:27:56.286Z,44.20
2019-03-24T13:32:57.626Z,44.10
2019-03-24T13:37:58.966Z,43.90
2019-03-24T13:43:00.336Z,44.00
2019-03-24T13:48:01.659Z,44.00
2019-03-24T13:53:03.141Z,43.90
2019-03-24T13:58:05.097Z,43.90
2019-03-24T14:03:06.735Z,43.90
2019-03-24T14:08:08.199Z,43.70
2019-03-24T14:13:09.520Z,43.70
2019-03-24T14:18:10.871Z,43.70
2019-03-24T14:23:12.202Z,43.60
2019-03-24T14:28:13.574Z,43.60
2019-03-24T14:33:15.191Z,43.70
2019-03-24T14:38:16.530Z,43.50
2019-03-24T14:43:17.872Z,43.50
2019-03-24T14:48:20.123Z,43.60
2019-03-24T14:53:21.448Z,43.50
2019-03-24T14:58:22.840Z,43.40
2019-03-24T15:03:24.179Z,43.40
2019-03-24T15:08:25.515Z,43.40
2019-03-24T15:13:26.866Z,43.20
2019-03-24T15:18:28.193Z,43.20
2019-03-24T15:23:29.526Z,43.20
2019-03-24T15:28:30.881Z,43.20
2019-03-24T15:33:32.201Z,43.30
2019-03-24T15:38:33.658Z,43.20
2019-03-24T15:43:34.994Z,43.20
2019-03-24T15:48:36.354Z,43.20
2019-03-24T15:53:37.771Z,43.20
2019-03-24T15:58:39.118Z,43.30
2019-03-24T16:03:40.455Z,43.30
2019-03-24T16:08:41.838Z,43.30
2019-03-24T16:13:43.230Z,43.40
2019-03-24T16:18:44.585Z,43.40
2019-03-24T16:23:45.903Z,43.40
2019-03-24T16:28:47.294Z,43.30
2019-03-24T16:33:48.618Z,43.30
2019-03-24T16:38:50.015Z,43.30
2019-03-24T16:43:51.341Z,43.30
2019-03-24T16:48:52.687Z,43.30
2019-03-24T16:53:54.016Z,43.30
2019-03-24T16:58:55.380Z,43.30
2019-03-24T17:03:56.707Z,43.40
2019-03-24T17:08:58.059Z,43.40
2019-03-24T17:13:59.384Z,43.50
2019-03-24T17:19:00.734Z,43.60
2019-03-24T17:24:02.061Z,43.60
2019-03-24T17:29:03.412Z,43.60
2019-03-24T17:34:04.743Z,43.70
2019-03-24T17:39:06.700Z,43.60
2019-03-24T17:44:08.015Z,43.20
2019-03-24T17:49:09.356Z,43.70
2019-03-24T17:54:10.709Z,43.70
2019-03-24T17:59:14.360Z,43.70
2019-03-24T18:04:15.318Z,43.80
2019-03-24T18:09:16.608Z,43.80
2019-03-24T18:14:18.063Z,43.90
2019-03-24T18:19:19.427Z,43.80
2019-03-24T18:24:20.755Z,43.90
2019-03-24T18:29:22.115Z,43.90
2019-03-24T18:34:23.458Z,44.00
2019-03-24T18:39:24.812Z,44.00
2019-03-24T18:44:26.130Z,43.90
2019-03-24T18:49:27.467Z,43.90
2019-03-24T18:54:28.835Z,44.10
2019-03-24T18:59:30.154Z,44.00
2019-03-24T19:04:31.502Z,44.00
2019-03-24T19:09:32.827Z,44.00
2019-03-24T19:14:34.206Z,44.00
2019-03-24T19:19:35.565Z,44.00
2019-03-24T19:24:36.987Z,44.10
2019-03-24T19:29:38.339Z,44.20
2019-03-24T19:34:39.667Z,44.10
2019-03-24T19:39:41.019Z,44.10
2019-03-24T19:44:42.338Z,44.20
2019-03-24T19:49:43.711Z,44.20
2019-03-24T19:54:45.034Z,44.20
2019-03-24T19:59:46.471Z,44.20
2019-03-24T20:04:47.792Z,44.20
2019-03-24T20:09:49.134Z,44.30
2019-03-24T20:14:50.511Z,44.30
2019-03-24T20:19:51.875Z,44.20
2019-03-24T20:24:53.214Z,44.30
2019-03-24T20:29:54.621Z,44.20
2019-03-24T20:34:55.979Z,44.20
2019-03-24T20:39:57.337Z,44.20
2019-03-24T20:44:59.491Z,44.30
2019-03-24T20:50:00.918Z,44.30
2019-03-24T20:55:05.170Z,44.20
2019-03-24T21:00:07.985Z,44.20
2019-03-24T21:05:11.037Z,44.20
2019-03-24T21:10:12.978Z,44.30
2019-03-24T21:15:14.325Z,44.20
2019-03-24T21:20:15.761Z,44.30
2019-03-24T21:25:17.156Z,44.20
2019-03-24T21:30:34.998Z,44.20
2019-03-24T21:35:36.486Z,44.20
2019-03-24T21:40:37.862Z,44.30
2019-03-24T21:45:39.190Z,44.30
2019-03-24T21:50:40.587Z,44.30
2019-03-24T21:55:41.922Z,44.20
2019-03-24T22:00:43.363Z,44.30
2019-03-24T22:05:44.884Z,44.20
2019-03-24T22:10:46.316Z,44.20
2019-03-24T22:15:47.714Z,44.20
2019-03-24T22:20:49.428Z,44.20
2019-03-24T22:25:50.828Z,44.20
2019-03-24T22:30:52.197Z,44.10
2019-03-24T22:35:53.570Z,44.10
2019-03-24T22:40:54.903Z,44.10
2019-03-24T22:45:56.277Z,44.10
2019-03-24T22:50:57.628Z,44.10
2019-03-24T22:55:59.022Z,44.10
2019-03-24T23:01:00.884Z,44.10
2019-03-24T23:06:02.829Z,44.10
2019-03-24T23:11:04.150Z,44.10
2019-03-24T23:16:05.693Z,44.10
2019-03-24T23:21:07.055Z,44.10
2019-03-24T23:26:08.530Z,44.10
2019-03-24T23:31:09.860Z,44.10
2019-03-24T23:36:11.210Z,44.10
2019-03-24T23:41:12.595Z,44.10
2019-03-24T23:46:13.999Z,44.10
2019-03-24T23:51:15.443Z,44.10
2019-03-24T23:56:16.774Z,44.10
